Warrensburg, MO

5:09 PM CST on February 28, 2015 (GMT -0600)
Clinton Memorial | Change Station
CLOSE
Current Station
Airport
Location: Clinton,
Elevation: 823 ft
Nearby Weather Stations
Active Advisory: Winter Weather Advisory Active Notice: Local Storm Report

Elev 823 ft 38.36 °N, 93.68 °W | Updated 14 minutes ago

Snow
Snow
27 °F
Feels Like 20 °F
N
6
Wind Variable Wind from ESE

Today
High -- | Low -- °F
--% Chance of Precip.
Yesterday
High -- | Low -- °F
Precip. -- in
6:48 AM 6:06 PM
Waxing Gibbous, 80% visible
Pressure 30.41 in
Visibility 0.5 miles
Clouds Overcast 100 ft
Windchill 20 °F
Dew Point 23 °F
Humidity 86%
Rainfall 1.42 in
Snow Depth Not available.
UV 0 out of 12
Pollen .50 out of 12
Air Quality Not available.
Flu Activity Not available.
METAR KGLY 282255Z AUTO 11005KT 1/2SM -SN OVC001 M03/M05 A3041 RMK AO2 P0011

More Conditions Fewer Conditions

Pressure 30.41 in
Visibility 0.5 miles
Clouds Overcast 100 ft
Windchill 20 °F
Dew Point 23 °F
Humidity 86%
Rainfall 1.42 in
Snow Depth Not available.
UV 0 out of 12
Pollen .50 out of 12
Air Quality Not available.
Flu Activity Not available.
METAR KGLY 282255Z AUTO 11005KT 1/2SM -SN OVC001 M03/M05 A3041 RMK AO2 P0011

More Conditions Fewer Conditions

10-Day Weather Forecast

Almanac

Astronomy

Feb. 28, 2015 Rise Set
Actual Time
Civil Twilight
Nautical Twilight
Astronomical Twilight
Moon
Length of Visible Light
Length of Day
Tomorrow will be .
, % of the Moon is Illuminated

Today's Extremes

State Highs State Lows

Community

WunderPhotos

Upload Photos

1,801,160 photos uploaded!

WunderBlogs® & News

Nearby

Air Quality

  Air Quality AQ Index Pollutant
Not available.

Snow Depth

Station Depth Elevation

Earthquake Activity

City Distance Mag. Time & Date
Minimum magnitude displayed is 2.5.

Coastal Water Temperatures

Place Temperature

Nearby Weather Stations

Winter Weather Advisory
Statement as of 3:40 PM CST on February 28, 2015

... Winter Weather Advisory remains in effect until 6 PM CST
Sunday...

A Winter Weather Advisory for snow remains in effect until 6 PM CST
Sunday.

* Timing... snow has spread eastern Kansas and Missouri this morning
and will continue to spread north and east through the early
evening hours. A lull in the snow is expected late tonight
followed by another round of light snow on Sunday morning.

* Snow accumulations... another 1" to 2" inches through the early
evening hours... with another inch of snow possible Sunday morning
with the secondary band of snow. Total accumulations 3" to 6" with
the highest amounts expected from east central Kansas --south of
Kansas City-- east through central Missouri.

* Impacts... travel may be hazardous... .especially on any
untreated roadways while it is snowing.

Precautionary/preparedness actions...

A Winter Weather Advisory means that periods of snow... sleet... or
freezing rain will cause travel difficulties. Be prepared for
slippery roads and limited visibilities... and use caution while
driving.